Jamestown, RI

8:02 PM EDT on August 31, 2015 (GMT -0400)
middletown access rd 17 | | Change Station
CLOSE
Current Station
Personal Weather Station
Location: middletown, RI
Elevation: 111 ft
Nearby Weather Stations

Elev 111 ft 41.53 °N, 71.30 °W | Updated 1 minute ago

Clear
Clear
75.6 °F
Feels Like 76 °F
N
1.0
Wind Variable Wind from South
Gusts 1.0 mph

Today
High -- | Low -- °F
--% Chance of Precip.
Yesterday
High -- | Low -- °F
Precip. -- in
6:10 AM 7:20 PM
Waning Gibbous, 93% visible
Pressure 29.92 in
Visibility 7.0 miles
Clouds Clear
Heat Index 76 °F
Dew Point 70 °F
Humidity 84%
Rainfall in
Snow Depth Not available.
UV 0 out of 12
Pollen 9.60 out of 12
Air Quality Not available.
Flu Activity Not available.
METAR KUUU 312353Z AUTO VRB03KT 7SM CLR 26/20 A2993 RMK AO2 SLP132 T02560200 10294 20256 51008
Pressure 29.92 in
Visibility 7.0 miles
Clouds Clear
Heat Index 76 °F
Dew Point 70 °F
Humidity 84%
Rainfall in
Snow Depth Not available.
UV 0 out of 12
Pollen 9.60 out of 12
Air Quality Not available.
Flu Activity Not available.
METAR KUUU 312353Z AUTO VRB03KT 7SM CLR 26/20 A2993 RMK AO2 SLP132 T02560200 10294 20256 51008

10-Day Weather Forecast

×

Almanac

Astronomy

Aug. 31, 2015 Rise Set
Actual Time
Civil Twilight
Nautical Twilight
Astronomical Twilight
Moon
Length of Visible Light
Length of Day
Tomorrow will be .
, % of the Moon is Illuminated

Today's Extremes

State Highs State Lows

Community

WunderPhotos

Upload Photos

1,851,397 photos uploaded!

WunderBlogs® & News

Nearby

Air Quality

  Air Quality AQ Index Pollutant
Not available.

Snow Depth

Station Depth Elevation

Earthquake Activity

City Distance Mag. Time & Date
Minimum magnitude displayed is 2.5.

Coastal Water Temperatures

Place Temperature

Stations

Nearby Weather Stations

Station Location Temp. Windchill Dew Point Humidity Wind Precip. Elev Updated Type